Accueil
METAR-TAF:

METAR-TAF

Aéroports :

Pampelune, Espagne

Aéroport de Pampelune

latitude: 42-46N, longitude: 001-38W, altitude: 459 m

Observation

Le bulletin a été fait il y a 35 minutes, à 01:30 UTC
Vent 2 kt de est/nord-est
Température 8°C
Humidité 93%
Pression 1024 hPa
Visibilité 10 km ou plus

METAR: LEPP 200130Z AUTO 07002KT 9999 NCD 08/07 Q1024

Heure: 04:05 (02:05 UTC)

Prévision

Le bulletin a été fait il y a 6 heures et 5 minutes, à 20:00 UTC
Prévision valable du 19 à 21 UTC au 20 à 21 UTC
Vent 7 kt de nord
Visibilité 10 km ou plus
Quelques nuages à une hauteur de 3500 ft

TAF: LEPP 192000Z 1921/2021 35007KT 9999 FEW035 TX24/2014Z TN09/2006Z

Observations et prévisions météorologiques de plus de 4000 aéroports (messages METAR et TAF).

Les stations disponibles sont représentées par des disques jaunes et rouges sur la carte.

Passer la souris dessus pour voir le nom de la station.

Cliquer dessus pour voir les observations et prévisions météorologiques.

Pour changer de carte: cliquez sur les boutons verts avec une croix noire pour zoomer, sur le bouton vert avec un tiret pour effectuer un zoom arrière, ou sur les flèches vertes pour les cartes adjacentes.


METAR-TAF: